Flight Track Log - Related Links

Times and Time Zones

All times are in EDT time to prevent confusion due to time zone crossing. See the EJA749 flight status page for this flight to view local times or setup timezone preferences in your user account.

Time Position Orientation Groundspeed Altitude Reporting Facility
EDT Latitude Longitude Course Direction KTS MPH feet Rate Location/Type
Fri 03:01:27 PM 40.8808 -74.0453 290° West 180 207 1,600  Level New York Center
Fri 03:02:27 PM 40.8958 -74.1008 290° West 227 261 5,100 2,250 Climbing New York Center
Fri 03:03:27 PM 40.8281 -74.1389 203° Southwest 290 334 6,100 667 Climbing New York Center
Fri 03:03:57 PM 40.8000 -74.1500 197° South 284 327 6,100 1,643 Level New York TRACON
Fri 03:04:51 PM 40.7333 -74.1833 201° Southwest 280 322 8,400 3,421 Climbing New York TRACON
Fri 03:05:51 PM 40.6500 -74.2167 197° South 307 353 12,600 3,286 Climbing New York TRACON
Fri 03:06:57 PM 40.5333 -74.2000 174° South 385 443 15,300 2,200 Climbing New York TRACON
Fri 03:07:51 PM 40.4333 -74.1833 173° South 400 460 17,000 1,133 Climbing New York TRACON
Fri 03:08:27 PM 40.3625 -74.1731 174° South 399 459 17,000 63 Level New York Center
Fri 03:09:27 PM 40.2792 -74.1744 181° South 389 448 17,100  Climbing New York Center
Fri 03:10:27 PM 40.1678 -74.2042 192° South 376 433 17,000 400 Descending New York Center
Fri 03:11:27 PM 40.0775 -74.2297 192° South 371 427 17,900 2,185 Climbing New York Center
Fri 03:13:20 PM 39.9214 -74.3281 206° Southwest 340 391 23,300 2,862 Climbing Washington Center
Fri 03:14:21 PM 39.8244 -74.4244 217° Southwest 358 412 26,200 2,656 Climbing Washington Center
Fri 03:15:22 PM 39.7544 -74.5147 225° Southwest 364 419 28,700 2,571 Climbing Washington Center
Fri 03:16:20 PM 39.6844 -74.6072 225° Southwest 364 419 31,300 2,521 Climbing Washington Center
Fri 03:17:21 PM 39.6100 -74.6811 217° Southwest 357 411 33,700 1,636 Climbing Washington Center
Fri 03:18:21 PM 39.5272 -74.7386 208° Southwest 347 399 34,600 1,041 Climbing Washington Center
Fri 03:19:22 PM 39.4378 -74.7961 206° Southwest 347 399 35,800 1,361 Climbing Washington Center
Fri 03:20:20 PM 39.3486 -74.8561 207° Southwest 358 412 37,300 1,068 Climbing Washington Center
Fri 03:21:20 PM 39.2572 -74.9161 207° Southwest 363 418 37,900 347 Climbing Washington Center
Fri 03:22:21 PM 39.1619 -74.9814 208° Southwest 377 434 38,000 50 Climbing Washington Center
Fri 03:23:21 PM 39.0619 -75.0436 206° Southwest 391 450 38,000  Level Washington Center
Fri 03:24:22 PM 38.9622 -75.1083 207° Southwest 396 456 38,000  Level Washington Center
Fri 03:25:20 PM 38.8625 -75.1758 208° Southwest 401 461 38,000  Level Washington Center
Fri 03:26:21 PM 38.7628 -75.2428 208° Southwest 406 467 38,000  Level Washington Center
Fri 03:27:22 PM 38.6628 -75.3097 208° Southwest 406 467 38,000 -50 Level Washington Center
Fri 03:28:20 PM 38.5628 -75.3714 206° Southwest 406 467 37,900 -50 Descending Washington Center
Fri 03:29:21 PM 38.4628 -75.4353 207° Southwest 406 467 37,900  Level Washington Center
Fri 03:30:21 PM 38.3669 -75.4989 207° Southwest 401 461 37,900 50 Level Washington Center
Fri 03:31:22 PM 38.2733 -75.5733 212° Southwest 401 461 38,000 50 Climbing Washington Center
Fri 03:32:20 PM 38.1856 -75.6550 216° Southwest 401 461 38,000  Level Washington Center
Fri 03:33:20 PM 38.1000 -75.7394 218° Southwest 401 461 38,000 -50 Level Washington Center
Fri 03:34:21 PM 38.0333 -75.8106 220° Southwest 401 461 37,900  Descending Washington Center
Fri 03:35:21 PM 37.9225 -75.9050 214° Southwest 406 467 38,000 50 Climbing Washington Center
Fri 03:36:22 PM 37.8325 -75.9889 216° Southwest 406 467 38,000 -50 Level Washington Center
Fri 03:37:22 PM 37.7467 -76.0750 218° Southwest 406 467 37,900 -50 Descending Washington Center
Fri 03:38:22 PM 37.6756 -76.1428 217° Southwest 406 467 37,900 50 Level Washington Center
Fri 03:39:22 PM 37.5644 -76.2389 214° Southwest 406 467 38,000 50 Climbing Washington Center
Fri 03:40:21 PM 37.4744 -76.3219 216° Southwest 406 467 38,000  Level Washington Center
Fri 03:41:21 PM 37.3819 -76.4047 215° Southwest 406 467 38,000  Level Washington Center
Fri 03:42:22 PM 37.2917 -76.4872 216° Southwest 406 467 38,000  Level Washington Center
Fri 03:43:20 PM 37.2014 -76.5697 216° Southwest 406 467 38,000  Level Washington Center
Fri 03:44:20 PM 37.1089 -76.6544 216° Southwest 406 467 38,000  Level Washington Center
Fri 03:45:21 PM 37.0164 -76.7364 215° Southwest 411 473 38,000  Level Washington Center
Fri 03:46:22 PM 36.9258 -76.8208 217° Southwest 411 473 38,000  Level Washington Center
Fri 03:47:20 PM 36.8311 -76.9050 215° Southwest 411 473 38,000  Level Washington Center
Fri 03:48:20 PM 36.7383 -76.9889 216° Southwest 416 479 38,000  Level Washington Center
Fri 03:49:22 PM 36.6475 -77.0753 217° Southwest 416 479 38,000  Level Washington Center
Fri 03:50:22 PM 36.5589 -77.1642 219° Southwest 416 479 38,000  Level Washington Center
Fri 03:51:21 PM 36.4681 -77.2528 218° Southwest 416 479 38,000  Level Washington Center
Fri 03:52:21 PM 36.3750 -77.3411 217° Southwest 422 486 38,000  Level Washington Center
Fri 03:53:22 PM 36.2858 -77.4317 219° Southwest 422 486 38,000  Level Washington Center
Fri 03:54:20 PM 36.1989 -77.5172 218° Southwest 422 486 38,000  Level Washington Center
Fri 03:55:20 PM 36.1078 -77.6075 219° Southwest 422 486 38,000  Level Washington Center
Fri 03:56:20 PM 36.0144 -77.6950 217° Southwest 428 493 38,000  Level Washington Center
Fri 03:57:22 PM 35.9211 -77.7850 218° Southwest 428 493 38,000  Level Washington Center
Fri 03:58:22 PM 35.8278 -77.8719 217° Southwest 428 493 38,000  Level Washington Center
Fri 03:59:20 PM 35.7342 -77.9614 218° Southwest 428 493 38,000  Level Washington Center
Fri 04:00:21 PM 35.6406 -78.0508 218° Southwest 428 493 38,000  Level Washington Center
Fri 04:01:21 PM 35.5447 -78.1372 216° Southwest 428 493 38,000  Level Washington Center
Fri 04:02:22 PM 35.4489 -78.2283 218° Southwest 428 493 38,000  Level Washington Center
Fri 04:03:22 PM 35.3531 -78.3169 217° Southwest 428 493 38,000  Level Washington Center
Fri 04:04:23 PM 35.2592 -78.4078 218° Southwest 428 493 38,000  Level Washington Center
Fri 04:05:20 PM 35.1631 -78.4961 217° Southwest 428 493 38,000  Level Washington Center
Fri 04:06:22 PM 35.0692 -78.5864 218° Southwest 428 493 38,000  Level Washington Center
Fri 04:07:22 PM 34.9750 -78.6767 218° Southwest 428 493 38,000  Level Washington Center
Fri 04:08:22 PM 34.8894 -78.7544 217° Southwest 428 493 38,000  Level Washington Center
Fri 04:09:20 PM 34.7953 -78.8419 217° Southwest 428 493 38,000  Level Washington Center
Fri 04:10:20 PM 34.6989 -78.9317 217° Southwest 428 493 38,000 -32 Level Washington Center
Fri 04:12:30 PM 34.4856 -79.1319 218° Southwest 437 503 37,900 -32 Descending Jacksonville Center
Fri 04:13:30 PM 34.3922 -79.2189 218° Southwest 442 509 37,900  Level Jacksonville Center
Fri 04:14:30 PM 34.2944 -79.3086 217° Southwest 442 509 37,900  Level Jacksonville Center
Fri 04:15:30 PM 34.1989 -79.3928 216° Southwest 437 503 37,900  Level Jacksonville Center
Fri 04:16:30 PM 34.0992 -79.4819 217° Southwest 425 489 37,900  Level Jacksonville Center
Fri 04:17:30 PM 33.9992 -79.5686 216° Southwest 431 496 37,900  Level Jacksonville Center
Fri 04:18:30 PM 33.9056 -79.6572 218° Southwest 431 496 37,900  Level Jacksonville Center
Fri 04:19:30 PM 33.8203 -79.7528 223° Southwest 431 496 37,900 -1,100 Level Jacksonville Center
Fri 04:20:30 PM 33.7436 -79.8581 229° Southwest 425 489 35,700 -2,900 Descending Jacksonville Center
Fri 04:21:30 PM 33.6669 -79.9653 229° Southwest 419 482 32,100 -2,700 Descending Jacksonville Center
Fri 04:22:30 PM 33.5983 -80.0700 232° Southwest 414 476 30,300 -1,050 Descending Jacksonville Center
Fri 04:23:30 PM 33.5106 -80.1575 220° Southwest 409 471 30,000 -150 Descending Jacksonville Center
Fri 04:24:30 PM 33.4206 -80.2497 221° Southwest 416 479 30,000 -150 Level Jacksonville Center
Fri 04:25:30 PM 33.3603 -80.3683 239° Southwest 421 484 29,700 -1,400 Descending Jacksonville Center
Fri 04:26:30 PM 33.3189 -80.4864 247° West 426 490 27,200 -2,700 Descending Jacksonville Center
Fri 04:27:30 PM 33.2631 -80.6219 244° Southwest 441 507 24,300 -2,150 Descending Jacksonville Center
Fri 04:28:30 PM 33.2028 -80.7650 243° Southwest 465 535 22,900 -850 Descending Jacksonville Center
Fri 04:29:30 PM 33.1467 -80.9078 245° Southwest 471 542 22,600 -1,200 Descending Jacksonville Center
Fri 04:30:30 PM 33.1006 -81.0278 245° Southwest 448 516 20,500 -1,800 Descending Jacksonville Center
Fri 04:31:30 PM 33.0606 -81.1428 247° West 405 466 19,000 -1,350 Descending Jacksonville Center
Fri 04:32:30 PM 33.0242 -81.2450 247° West 364 419 17,800 -1,200 Descending Jacksonville Center
Fri 04:33:30 PM 32.9919 -81.3397 248° West 331 381 16,600 -1,550 Descending Jacksonville Center
Fri 04:34:30 PM 32.9661 -81.4342 252° West 320 368 14,700 -2,300 Descending Jacksonville Center
Fri 04:35:30 PM 32.9358 -81.5264 249° West 306 352 12,000 -1,400 Descending Jacksonville Center
Fri 04:36:30 PM 32.9033 -81.6108 245° Southwest 299 344 11,900 -50 Descending Jacksonville Center
Fri 04:37:30 PM 32.8639 -81.6511 221° Southwest 234 269 11,900 50 Level Jacksonville Center
Fri 04:38:30 PM 32.8072 -81.6122 150° Southeast 167 192 12,000  Climbing Jacksonville Center
Fri 04:39:30 PM 32.7653 -81.5833 150° Southeast 167 192 11,900  Descending Jacksonville Center
Fri 04:40:30 PM 32.7189 -81.5517 150° Southeast 180 207 12,000 50 Climbing Jacksonville Center
Fri 04:41:30 PM 32.6728 -81.5228 152° Southeast 185 213 12,000 50 Level Jacksonville Center
Fri 04:42:30 PM 32.6242 -81.4842 146° Southeast 197 227 12,100 -1,050 Climbing Jacksonville Center
Fri 04:43:30 PM 32.5506 -81.4336 150° Southeast 261 300 9,900 -2,150 Descending Jacksonville Center
Fri 04:44:30 PM 32.4956 -81.3681 135° Southeast 290 334 7,800 -2,100 Descending Jacksonville Center
Fri 04:45:30 PM 32.4467 -81.3022 131° Southeast 271 312 5,700 -1,900 Descending Jacksonville Center
Fri 04:46:30 PM 32.4042 -81.2414 130° Southeast 262 302 4,000 -900 Descending Jacksonville Center
Fri 04:47:30 PM 32.3492 -81.1833 138° Southeast 262 302 3,900 -1,000 Descending Jacksonville Center
Fri 04:48:30 PM 32.2836 -81.1233 142° Southeast 267 307 2,000 -1,900 Descending Jacksonville Center
Fri 04:50:00 PM 32.1346 -81.1828 199° South  Level FlightAware Approximate
Fri 04:57:00 PM 32.1167 -81.2000 220° Southwest  Level FlightAware Approximate
Fri 04:58:00 PM 32.1276 -81.2021 220° Southwest  Level Estimated
Fri 04:59:00 PM 32.1276 -81.2021 220° Southwest  Level Estimated
Fri 05:00:00 PM 32.1276 -81.2021 220° Southwest  Level Estimated
Fri 05:01:00 PM 32.1276 -81.2021 220° Southwest  Level Estimated
Fri 05:02:00 PM 32.1276 -81.2021 220° Southwest  Level Estimated

Login

Don't have an account? Register now (free) for customized features, flight alerts, and more!